SAS928 KBOS-EKCH
Flight info
| Callsign | SAS928 |
|---|---|
| Flight time | N/A |
| Altitude | 37000 |
| Route | LOGAN4 CELTK DCT FRILL DCT TUSKY DCT NEEKO/M079F370 DCT 54N050W 57N040W/M079F390 59N030W 60N020W DCT ATSIX/N0460F390 DCT AKIVO DCT KLONN DCT RAMUD DCT TNO |
| Aircraft | A333/H-SDE1E3FGHIJ3J4J5M1P2RWXYZ/LB2D1 |
Departure
| Time | 2026-05-05 21:59 |
|---|---|
| Airport | Boston Logan International Airport (KBOS) |
Arrival
| Time | N/A |
|---|---|
| Airport | Copenhagen Kastrup Airport (EKCH) |
| Time | Latitude | Longitude | Altitude | Speed | Heading |
|---|---|---|---|---|---|
| 2026-05-05 21:37 | 42.37044 | -71.01792 | 29 ft | 0 kts | 207° |
| 2026-05-05 21:44 | 42.37050 | -71.01788 | 29 ft | 4 kts | 204° |
| 2026-05-05 21:45 | 42.37075 | -71.01777 | 29 ft | 4 kts | 187° |
| 2026-05-05 21:45 | 42.37102 | -71.01776 | 28 ft | 4 kts | 169° |
| 2026-05-05 21:45 | 42.37127 | -71.01787 | 28 ft | 4 kts | 152° |
| 2026-05-05 21:45 | 42.37149 | -71.01807 | 28 ft | 4 kts | 131° |
| 2026-05-05 21:46 | 42.37155 | -71.01818 | 29 ft | 1 kts | 123° |
| 2026-05-05 21:48 | 42.37155 | -71.01817 | 29 ft | 0 kts | 123° |
| 2026-05-05 21:48 | 42.37151 | -71.01809 | 29 ft | 2 kts | 123° |
| 2026-05-05 21:48 | 42.37142 | -71.01789 | 29 ft | 3 kts | 123° |
| 2026-05-05 21:48 | 42.37130 | -71.01744 | 29 ft | 5 kts | 95° |
| 2026-05-05 21:49 | 42.37137 | -71.01690 | 29 ft | 6 kts | 78° |
| 2026-05-05 21:49 | 42.37142 | -71.01636 | 29 ft | 2 kts | 104° |
| 2026-05-05 21:49 | 42.37135 | -71.01615 | 29 ft | 2 kts | 123° |
| 2026-05-05 21:49 | 42.37123 | -71.01596 | 29 ft | 3 kts | 131° |
| 2026-05-05 21:50 | 42.37105 | -71.01571 | 29 ft | 4 kts | 134° |
| 2026-05-05 21:50 | 42.37083 | -71.01541 | 29 ft | 5 kts | 134° |
| 2026-05-05 21:50 | 42.37056 | -71.01503 | 29 ft | 6 kts | 134° |
| 2026-05-05 21:50 | 42.37025 | -71.01458 | 29 ft | 7 kts | 134° |
| 2026-05-05 21:51 | 42.36989 | -71.01408 | 29 ft | 8 kts | 134° |
| 2026-05-05 21:51 | 42.36949 | -71.01354 | 29 ft | 8 kts | 136° |
| 2026-05-05 21:51 | 42.36913 | -71.01290 | 29 ft | 9 kts | 110° |
| 2026-05-05 21:51 | 42.36909 | -71.01209 | 29 ft | 6 kts | 80° |
| 2026-05-05 21:52 | 42.36959 | -71.01137 | 27 ft | 6 kts | 42° |
| 2026-05-05 21:52 | 42.36998 | -71.01100 | 29 ft | 7 kts | 30° |
| 2026-05-05 21:52 | 42.37046 | -71.01067 | 29 ft | 8 kts | 26° |
| 2026-05-05 21:53 | 42.37100 | -71.01033 | 29 ft | 9 kts | 25° |
| 2026-05-05 21:53 | 42.37161 | -71.00994 | 29 ft | 10 kts | 25° |
| 2026-05-05 21:53 | 42.37230 | -71.00951 | 29 ft | 11 kts | 25° |
| 2026-05-05 21:53 | 42.37305 | -71.00904 | 29 ft | 12 kts | 25° |
| 2026-05-05 21:54 | 42.37386 | -71.00861 | 29 ft | 13 kts | 19° |
| 2026-05-05 21:54 | 42.37474 | -71.00822 | 29 ft | 14 kts | 19° |
| 2026-05-05 21:54 | 42.37568 | -71.00778 | 29 ft | 15 kts | 19° |
| 2026-05-05 21:54 | 42.37666 | -71.00731 | 29 ft | 13 kts | 21° |
| 2026-05-05 21:55 | 42.37725 | -71.00699 | 29 ft | 2 kts | 21° |
| 2026-05-05 21:55 | 42.37744 | -71.00689 | 29 ft | 4 kts | 21° |
| 2026-05-05 21:55 | 42.37772 | -71.00675 | 29 ft | 5 kts | 21° |
| 2026-05-05 21:55 | 42.37807 | -71.00655 | 29 ft | 6 kts | 26° |
| 2026-05-05 21:56 | 42.37831 | -71.00615 | 29 ft | 5 kts | 69° |
| 2026-05-05 21:56 | 42.37833 | -71.00605 | 29 ft | 0 kts | 78° |
| 2026-05-05 21:57 | 42.37834 | -71.00593 | 28 ft | 5 kts | 84° |
| 2026-05-05 21:57 | 42.37824 | -71.00523 | 29 ft | 8 kts | 107° |
| 2026-05-05 21:57 | 42.37793 | -71.00485 | 29 ft | 6 kts | 158° |
| 2026-05-05 21:57 | 42.37766 | -71.00487 | 29 ft | 0 kts | 199° |
| 2026-05-05 21:58 | 42.37766 | -71.00488 | 29 ft | 1 kts | 199° |
| 2026-05-05 21:58 | 42.37620 | -71.00557 | 29 ft | 52 kts | 199° |
| 2026-05-05 21:58 | 42.37088 | -71.00815 | 30 ft | 110 kts | 199° |
| 2026-05-05 21:58 | 42.36258 | -71.01205 | 363 ft | 135 kts | 198° |
| 2026-05-05 21:59 | 42.35348 | -71.01619 | 1064 ft | 137 kts | 199° |
| 2026-05-05 21:59 | 42.34388 | -71.01779 | 1682 ft | 154 kts | 176° |
| 2026-05-05 21:59 | 42.33350 | -71.00958 | 1958 ft | 197 kts | 146° |
| 2026-05-05 21:59 | 42.32402 | -70.99415 | 2325 ft | 226 kts | 137° |
| 2026-05-05 22:00 | 42.31588 | -70.97405 | 2693 ft | 264 kts | 117° |
| 2026-05-05 22:00 | 42.31442 | -70.94780 | 3118 ft | 298 kts | 88° |
| 2026-05-05 22:00 | 42.31948 | -70.92006 | 3725 ft | 310 kts | 73° |
| 2026-05-05 22:00 | 42.32801 | -70.89306 | 4442 ft | 315 kts | 65° |
| 2026-05-05 22:01 | 42.33807 | -70.86658 | 5198 ft | 318 kts | 63° |
| 2026-05-05 22:01 | 42.34852 | -70.84014 | 5942 ft | 322 kts | 62° |
| 2026-05-05 22:01 | 42.35897 | -70.81308 | 6657 ft | 326 kts | 63° |
| 2026-05-05 22:01 | 42.36910 | -70.78566 | 7470 ft | 326 kts | 64° |
| 2026-05-05 22:02 | 42.37891 | -70.75797 | 8332 ft | 325 kts | 64° |
| 2026-05-05 22:02 | 42.38849 | -70.73012 | 9241 ft | 326 kts | 64° |
| 2026-05-05 22:02 | 42.39793 | -70.70226 | 10006 ft | 328 kts | 64° |
| 2026-05-05 22:02 | 42.40750 | -70.67384 | 10454 ft | 341 kts | 64° |
| 2026-05-05 22:03 | 42.41753 | -70.64396 | 10748 ft | 360 kts | 64° |
| 2026-05-05 22:03 | 42.42815 | -70.61229 | 11041 ft | 377 kts | 64° |
| 2026-05-05 22:03 | 42.43912 | -70.57964 | 11575 ft | 385 kts | 64° |
| 2026-05-05 22:03 | 42.45012 | -70.54688 | 12258 ft | 388 kts | 64° |
| 2026-05-05 22:04 | 42.46130 | -70.51356 | 13004 ft | 389 kts | 65° |
| 2026-05-05 22:04 | 42.47250 | -70.48007 | 13708 ft | 392 kts | 65° |
| 2026-05-05 22:04 | 42.48376 | -70.44634 | 14343 ft | 395 kts | 65° |
| 2026-05-05 22:04 | 42.49515 | -70.41220 | 14932 ft | 400 kts | 65° |
| 2026-05-05 22:05 | 42.50665 | -70.37769 | 15535 ft | 403 kts | 65° |
| 2026-05-05 22:05 | 42.51838 | -70.34245 | 16137 ft | 407 kts | 65° |
| 2026-05-05 22:05 | 42.52995 | -70.30769 | 16721 ft | 411 kts | 65° |
| 2026-05-05 22:05 | 42.54172 | -70.27229 | 17332 ft | 414 kts | 66° |
| 2026-05-05 22:06 | 42.55360 | -70.23648 | 17912 ft | 417 kts | 66° |
| 2026-05-05 22:06 | 42.56555 | -70.20044 | 18448 ft | 421 kts | 66° |
| 2026-05-05 22:06 | 42.57758 | -70.16413 | 18952 ft | 423 kts | 65° |
| 2026-05-05 22:06 | 42.58967 | -70.12761 | 19470 ft | 426 kts | 65° |
| 2026-05-05 22:07 | 42.60179 | -70.09095 | 19957 ft | 429 kts | 65° |
| 2026-05-05 22:07 | 42.61403 | -70.05389 | 20463 ft | 432 kts | 65° |
| 2026-05-05 22:07 | 42.62633 | -70.01658 | 20944 ft | 435 kts | 65° |
| 2026-05-05 22:07 | 42.63869 | -69.97899 | 21425 ft | 437 kts | 65° |
| 2026-05-05 22:08 | 42.65115 | -69.94109 | 21850 ft | 442 kts | 65° |
| 2026-05-05 22:08 | 42.66369 | -69.90288 | 22334 ft | 444 kts | 65° |
| 2026-05-05 22:08 | 42.67629 | -69.86444 | 22782 ft | 447 kts | 66° |
| 2026-05-05 22:08 | 42.68889 | -69.82588 | 23207 ft | 450 kts | 65° |
| 2026-05-05 22:09 | 42.70164 | -69.78687 | 23613 ft | 453 kts | 65° |
| 2026-05-05 22:09 | 42.71446 | -69.74757 | 23998 ft | 455 kts | 65° |
| 2026-05-05 22:09 | 42.72729 | -69.70820 | 24399 ft | 456 kts | 65° |
| 2026-05-05 22:09 | 42.73998 | -69.66920 | 24787 ft | 458 kts | 65° |
| 2026-05-05 22:10 | 42.75285 | -69.62956 | 25189 ft | 459 kts | 65° |
| 2026-05-05 22:10 | 42.76571 | -69.58992 | 25561 ft | 461 kts | 65° |
| 2026-05-05 22:10 | 42.77873 | -69.54975 | 25866 ft | 465 kts | 65° |
| 2026-05-05 22:10 | 42.79176 | -69.50945 | 26244 ft | 466 kts | 65° |
| 2026-05-05 22:11 | 42.80486 | -69.46887 | 26642 ft | 467 kts | 65° |
| 2026-05-05 22:11 | 42.81792 | -69.42837 | 26975 ft | 470 kts | 65° |
| 2026-05-05 22:11 | 42.83106 | -69.38754 | 27365 ft | 471 kts | 65° |
| 2026-05-05 22:11 | 42.84424 | -69.34653 | 27695 ft | 473 kts | 65° |
| 2026-05-05 22:12 | 42.85746 | -69.30532 | 28055 ft | 476 kts | 65° |
| 2026-05-05 22:12 | 42.87071 | -69.26398 | 28424 ft | 477 kts | 65° |
| 2026-05-05 22:12 | 42.88386 | -69.22291 | 28750 ft | 479 kts | 65° |
| 2026-05-05 22:12 | 42.89717 | -69.18124 | 29082 ft | 481 kts | 65° |
| 2026-05-05 22:13 | 42.91060 | -69.13913 | 29386 ft | 484 kts | 65° |
| 2026-05-05 22:13 | 42.92406 | -69.09684 | 29627 ft | 488 kts | 65° |
| 2026-05-05 22:13 | 42.93754 | -69.05442 | 30045 ft | 488 kts | 65° |
| 2026-05-05 22:13 | 42.95107 | -69.01178 | 30322 ft | 489 kts | 65° |
| 2026-05-05 22:14 | 42.96461 | -68.96907 | 30564 ft | 492 kts | 66° |
| 2026-05-05 22:14 | 42.97821 | -68.92607 | 30895 ft | 493 kts | 66° |
| 2026-05-05 22:14 | 42.99185 | -68.88288 | 31146 ft | 495 kts | 66° |
| 2026-05-05 22:14 | 43.00553 | -68.83952 | 31351 ft | 499 kts | 66° |
| 2026-05-05 22:15 | 43.01927 | -68.79587 | 31649 ft | 499 kts | 66° |
| 2026-05-05 22:15 | 43.03283 | -68.75270 | 31940 ft | 500 kts | 66° |
| 2026-05-05 22:15 | 43.04651 | -68.70910 | 32287 ft | 500 kts | 67° |
| 2026-05-05 22:15 | 43.06020 | -68.66541 | 32669 ft | 498 kts | 67° |
| 2026-05-05 22:16 | 43.07383 | -68.62182 | 33027 ft | 498 kts | 67° |
| 2026-05-05 22:16 | 43.08733 | -68.57857 | 33387 ft | 497 kts | 67° |
| 2026-05-05 22:16 | 43.10086 | -68.53517 | 33767 ft | 495 kts | 67° |
| 2026-05-05 22:16 | 43.11432 | -68.49190 | 34040 ft | 495 kts | 67° |
| 2026-05-05 22:17 | 43.12781 | -68.44848 | 34313 ft | 495 kts | 67° |
| 2026-05-05 22:17 | 43.14131 | -68.40497 | 34574 ft | 495 kts | 67° |
| 2026-05-05 22:17 | 43.15476 | -68.36152 | 34824 ft | 495 kts | 67° |
| 2026-05-05 22:17 | 43.16817 | -68.31814 | 35094 ft | 494 kts | 67° |
| 2026-05-05 22:18 | 43.18137 | -68.27536 | 35342 ft | 494 kts | 67° |
| 2026-05-05 22:18 | 43.19474 | -68.23199 | 35584 ft | 494 kts | 67° |
| 2026-05-05 22:18 | 43.20808 | -68.18860 | 35810 ft | 494 kts | 67° |
| 2026-05-05 22:18 | 43.22143 | -68.14515 | 36033 ft | 494 kts | 67° |
| 2026-05-05 22:19 | 43.23475 | -68.10169 | 36255 ft | 494 kts | 67° |
| 2026-05-05 22:19 | 43.24808 | -68.05814 | 36454 ft | 495 kts | 67° |
| 2026-05-05 22:19 | 43.25683 | -68.02951 | 36589 ft | 496 kts | 67° |
| 2026-05-05 22:19 | 43.27014 | -67.98590 | 36778 ft | 496 kts | 67° |
| 2026-05-05 22:20 | 43.28346 | -67.94216 | 36991 ft | 496 kts | 67° |
| 2026-05-05 22:20 | 43.29676 | -67.89846 | 37181 ft | 496 kts | 67° |
| 2026-05-05 22:20 | 43.30995 | -67.85502 | 37380 ft | 496 kts | 67° |
| 2026-05-05 22:20 | 43.32320 | -67.81129 | 37641 ft | 495 kts | 67° |
| 2026-05-05 22:21 | 43.33639 | -67.76773 | 37926 ft | 493 kts | 67° |
| 2026-05-05 22:21 | 43.34955 | -67.72415 | 38127 ft | 493 kts | 67° |
| 2026-05-05 22:21 | 43.36267 | -67.68068 | 38292 ft | 493 kts | 67° |
| 2026-05-05 22:21 | 43.37575 | -67.63722 | 38468 ft | 494 kts | 67° |
| 2026-05-05 22:22 | 43.38880 | -67.59381 | 38634 ft | 494 kts | 67° |
| 2026-05-05 22:22 | 43.40188 | -67.55024 | 38773 ft | 493 kts | 67° |
| 2026-05-05 22:22 | 43.41495 | -67.50659 | 38899 ft | 494 kts | 67° |
| 2026-05-05 22:23 | 43.44113 | -67.41900 | 38938 ft | 496 kts | 67° |
| 2026-05-05 22:23 | 43.46727 | -67.33121 | 38937 ft | 496 kts | 67° |
| 2026-05-05 22:24 | 43.49322 | -67.24379 | 38939 ft | 496 kts | 67° |